sensor_id;sensor_type;location;lat;lon;timestamp;P1;durP1;ratioP1;P2;durP2;ratioP2
51907;SDS011;39320;53.214;6.556;2023-01-23T00:01:18;3.25;;;3.05;;
51907;SDS011;39320;53.214;6.556;2023-01-23T00:03:47;3.65;;;3.30;;
51907;SDS011;39320;53.214;6.556;2023-01-23T00:06:13;3.30;;;2.92;;
51907;SDS011;39320;53.214;6.556;2023-01-23T00:08:43;3.33;;;3.05;;
51907;SDS011;39320;53.214;6.556;2023-01-23T00:11:11;3.83;;;3.40;;
51907;SDS011;39320;53.214;6.556;2023-01-23T00:13:46;3.33;;;3.03;;
51907;SDS011;39320;53.214;6.556;2023-01-23T00:16:13;3.72;;;3.50;;
51907;SDS011;39320;53.214;6.556;2023-01-23T00:18:40;3.10;;;2.80;;
51907;SDS011;39320;53.214;6.556;2023-01-23T00:21:07;3.30;;;3.00;;
51907;SDS011;39320;53.214;6.556;2023-01-23T00:23:35;3.35;;;3.05;;
51907;SDS011;39320;53.214;6.556;2023-01-23T00:26:05;3.38;;;3.05;;
51907;SDS011;39320;53.214;6.556;2023-01-23T00:28:32;4.15;;;3.05;;
51907;SDS011;39320;53.214;6.556;2023-01-23T00:31:02;3.28;;;2.60;;
51907;SDS011;39320;53.214;6.556;2023-01-23T00:33:32;3.40;;;3.10;;
51907;SDS011;39320;53.214;6.556;2023-01-23T00:35:58;3.65;;;3.33;;
51907;SDS011;39320;53.214;6.556;2023-01-23T00:38:25;3.25;;;2.95;;
51907;SDS011;39320;53.214;6.556;2023-01-23T00:40:51;3.22;;;2.97;;
51907;SDS011;39320;53.214;6.556;2023-01-23T00:43:18;4.90;;;3.20;;
51907;SDS011;39320;53.214;6.556;2023-01-23T00:45:45;3.28;;;3.03;;
51907;SDS011;39320;53.214;6.556;2023-01-23T00:48:11;3.65;;;3.17;;
51907;SDS011;39320;53.214;6.556;2023-01-23T00:50:37;4.20;;;3.40;;
51907;SDS011;39320;53.214;6.556;2023-01-23T00:53:03;3.35;;;3.05;;
51907;SDS011;39320;53.214;6.556;2023-01-23T00:55:29;3.30;;;2.90;;
51907;SDS011;39320;53.214;6.556;2023-01-23T00:57:54;3.78;;;2.65;;
51907;SDS011;39320;53.214;6.556;2023-01-23T01:00:20;3.03;;;2.55;;
51907;SDS011;39320;53.214;6.556;2023-01-23T01:02:46;2.80;;;2.53;;
51907;SDS011;39320;53.214;6.556;2023-01-23T01:05:12;2.97;;;2.67;;
51907;SDS011;39320;53.214;6.556;2023-01-23T01:07:38;4.10;;;3.03;;
51907;SDS011;39320;53.214;6.556;2023-01-23T01:10:04;3.53;;;3.22;;
51907;SDS011;39320;53.214;6.556;2023-01-23T01:12:30;3.28;;;3.03;;
51907;SDS011;39320;53.214;6.556;2023-01-23T01:14:55;3.80;;;3.00;;
51907;SDS011;39320;53.214;6.556;2023-01-23T01:17:21;3.33;;;3.10;;
51907;SDS011;39320;53.214;6.556;2023-01-23T01:19:47;3.58;;;2.55;;
51907;SDS011;39320;53.214;6.556;2023-01-23T01:22:13;3.67;;;3.38;;
51907;SDS011;39320;53.214;6.556;2023-01-23T01:24:40;3.50;;;3.20;;
51907;SDS011;39320;53.214;6.556;2023-01-23T01:27:09;4.20;;;3.70;;
51907;SDS011;39320;53.214;6.556;2023-01-23T01:29:35;4.05;;;3.65;;
51907;SDS011;39320;53.214;6.556;2023-01-23T01:32:00;3.35;;;3.00;;
51907;SDS011;39320;53.214;6.556;2023-01-23T01:34:26;4.97;;;3.08;;
51907;SDS011;39320;53.214;6.556;2023-01-23T01:36:52;3.45;;;2.78;;
51907;SDS011;39320;53.214;6.556;2023-01-23T01:39:17;3.83;;;3.53;;
51907;SDS011;39320;53.214;6.556;2023-01-23T01:41:43;3.53;;;2.90;;
51907;SDS011;39320;53.214;6.556;2023-01-23T01:44:14;5.85;;;3.65;;
51907;SDS011;39320;53.214;6.556;2023-01-23T01:46:42;3.40;;;2.78;;
51907;SDS011;39320;53.214;6.556;2023-01-23T01:49:22;3.22;;;2.92;;
51907;SDS011;39320;53.214;6.556;2023-01-23T01:52:04;3.15;;;2.80;;
51907;SDS011;39320;53.214;6.556;2023-01-23T01:54:37;3.20;;;2.90;;
51907;SDS011;39320;53.214;6.556;2023-01-23T01:59:44;4.03;;;3.58;;
51907;SDS011;39320;53.214;6.556;2023-01-23T02:02:17;4.10;;;3.75;;
51907;SDS011;39320;53.214;6.556;2023-01-23T02:04:47;3.05;;;2.75;;
51907;SDS011;39320;53.214;6.556;2023-01-23T02:07:20;3.40;;;3.10;;
51907;SDS011;39320;53.214;6.556;2023-01-23T02:09:49;3.00;;;2.42;;
51907;SDS011;39320;53.214;6.556;2023-01-23T02:12:17;3.25;;;3.00;;
51907;SDS011;39320;53.214;6.556;2023-01-23T02:14:42;3.25;;;2.47;;
51907;SDS011;39320;53.214;6.556;2023-01-23T02:17:09;3.90;;;2.75;;
51907;SDS011;39320;53.214;6.556;2023-01-23T02:22:18;2.90;;;2.67;;
51907;SDS011;39320;53.214;6.556;2023-01-23T02:27:51;3.33;;;2.72;;
51907;SDS011;39320;53.214;6.556;2023-01-23T02:30:17;3.85;;;3.33;;
51907;SDS011;39320;53.214;6.556;2023-01-23T02:32:44;3.78;;;3.17;;
51907;SDS011;39320;53.214;6.556;2023-01-23T02:35:12;3.45;;;3.15;;
51907;SDS011;39320;53.214;6.556;2023-01-23T02:38:05;2.95;;;2.72;;
51907;SDS011;39320;53.214;6.556;2023-01-23T02:40:37;3.72;;;2.83;;
51907;SDS011;39320;53.214;6.556;2023-01-23T02:43:05;4.10;;;2.80;;
51907;SDS011;39320;53.214;6.556;2023-01-23T02:45:34;3.13;;;2.88;;
51907;SDS011;39320;53.214;6.556;2023-01-23T02:48:00;4.40;;;3.20;;
51907;SDS011;39320;53.214;6.556;2023-01-23T02:50:27;3.65;;;3.08;;
51907;SDS011;39320;53.214;6.556;2023-01-23T02:52:53;3.38;;;3.17;;
51907;SDS011;39320;53.214;6.556;2023-01-23T02:55:22;3.88;;;3.13;;
51907;SDS011;39320;53.214;6.556;2023-01-23T02:57:50;4.00;;;3.38;;
51907;SDS011;39320;53.214;6.556;2023-01-23T03:00:17;4.10;;;3.70;;
51907;SDS011;39320;53.214;6.556;2023-01-23T03:02:47;3.90;;;3.60;;
51907;SDS011;39320;53.214;6.556;2023-01-23T03:05:15;2.90;;;2.67;;
51907;SDS011;39320;53.214;6.556;2023-01-23T03:07:42;5.68;;;3.20;;
51907;SDS011;39320;53.214;6.556;2023-01-23T03:10:08;4.05;;;3.65;;
51907;SDS011;39320;53.214;6.556;2023-01-23T03:12:36;3.42;;;3.05;;
51907;SDS011;39320;53.214;6.556;2023-01-23T03:15:07;3.95;;;3.58;;
51907;SDS011;39320;53.214;6.556;2023-01-23T03:17:34;4.18;;;3.17;;
51907;SDS011;39320;53.214;6.556;2023-01-23T03:20:01;3.30;;;3.00;;
51907;SDS011;39320;53.214;6.556;2023-01-23T03:22:28;3.90;;;3.50;;
51907;SDS011;39320;53.214;6.556;2023-01-23T03:24:55;3.35;;;3.08;;
51907;SDS011;39320;53.214;6.556;2023-01-23T03:27:22;3.53;;;3.22;;
51907;SDS011;39320;53.214;6.556;2023-01-23T03:29:48;2.97;;;2.75;;
51907;SDS011;39320;53.214;6.556;2023-01-23T03:32:32;3.47;;;3.17;;
51907;SDS011;39320;53.214;6.556;2023-01-23T03:34:58;4.28;;;3.35;;
51907;SDS011;39320;53.214;6.556;2023-01-23T03:37:24;4.25;;;3.42;;
51907;SDS011;39320;53.214;6.556;2023-01-23T03:39:50;3.28;;;2.97;;
51907;SDS011;39320;53.214;6.556;2023-01-23T03:42:35;3.83;;;3.20;;
51907;SDS011;39320;53.214;6.556;2023-01-23T03:45:00;5.53;;;3.67;;
51907;SDS011;39320;53.214;6.556;2023-01-23T03:47:30;4.32;;;3.97;;
51907;SDS011;39320;53.214;6.556;2023-01-23T03:49:56;3.35;;;3.00;;
51907;SDS011;39320;53.214;6.556;2023-01-23T03:52:22;3.60;;;3.30;;
51907;SDS011;39320;53.214;6.556;2023-01-23T03:54:49;3.72;;;3.42;;
51907;SDS011;39320;53.214;6.556;2023-01-23T03:57:15;4.05;;;3.63;;
51907;SDS011;39320;53.214;6.556;2023-01-23T03:59:41;3.97;;;3.67;;
51907;SDS011;39320;53.214;6.556;2023-01-23T04:02:08;4.10;;;3.72;;
51907;SDS011;39320;53.214;6.556;2023-01-23T04:04:34;3.70;;;3.30;;
51907;SDS011;39320;53.214;6.556;2023-01-23T04:07:00;3.55;;;3.25;;
51907;SDS011;39320;53.214;6.556;2023-01-23T04:09:26;3.67;;;3.38;;
51907;SDS011;39320;53.214;6.556;2023-01-23T04:11:53;3.50;;;3.20;;
51907;SDS011;39320;53.214;6.556;2023-01-23T04:14:20;3.30;;;2.97;;
51907;SDS011;39320;53.214;6.556;2023-01-23T04:16:48;3.53;;;3.10;;
51907;SDS011;39320;53.214;6.556;2023-01-23T04:19:24;3.70;;;3.10;;
51907;SDS011;39320;53.214;6.556;2023-01-23T04:21:50;4.63;;;2.90;;
51907;SDS011;39320;53.214;6.556;2023-01-23T04:24:16;4.35;;;3.22;;
51907;SDS011;39320;53.214;6.556;2023-01-23T04:26:42;3.38;;;3.08;;
51907;SDS011;39320;53.214;6.556;2023-01-23T04:29:09;2.97;;;2.78;;
51907;SDS011;39320;53.214;6.556;2023-01-23T04:31:35;3.30;;;2.92;;
51907;SDS011;39320;53.214;6.556;2023-01-23T04:34:01;3.42;;;3.13;;
51907;SDS011;39320;53.214;6.556;2023-01-23T04:36:27;4.20;;;3.60;;
51907;SDS011;39320;53.214;6.556;2023-01-23T04:38:53;3.65;;;2.95;;
51907;SDS011;39320;53.214;6.556;2023-01-23T04:41:23;3.42;;;3.13;;
51907;SDS011;39320;53.214;6.556;2023-01-23T04:43:51;2.92;;;2.70;;
51907;SDS011;39320;53.214;6.556;2023-01-23T04:46:17;3.58;;;3.28;;
51907;SDS011;39320;53.214;6.556;2023-01-23T04:48:46;4.28;;;2.80;;
51907;SDS011;39320;53.214;6.556;2023-01-23T04:51:12;3.30;;;3.10;;
51907;SDS011;39320;53.214;6.556;2023-01-23T04:53:38;3.38;;;3.00;;
51907;SDS011;39320;53.214;6.556;2023-01-23T04:56:04;3.67;;;3.38;;
51907;SDS011;39320;53.214;6.556;2023-01-23T04:58:30;3.28;;;2.97;;
51907;SDS011;39320;53.214;6.556;2023-01-23T05:01:06;3.05;;;2.75;;
51907;SDS011;39320;53.214;6.556;2023-01-23T05:03:34;3.40;;;3.10;;
51907;SDS011;39320;53.214;6.556;2023-01-23T05:06:04;4.07;;;3.50;;
51907;SDS011;39320;53.214;6.556;2023-01-23T05:08:33;3.33;;;3.03;;
51907;SDS011;39320;53.214;6.556;2023-01-23T05:10:59;3.55;;;2.90;;
51907;SDS011;39320;53.214;6.556;2023-01-23T05:13:25;3.72;;;3.42;;
51907;SDS011;39320;53.214;6.556;2023-01-23T05:15:54;4.35;;;3.45;;
51907;SDS011;39320;53.214;6.556;2023-01-23T05:18:22;4.03;;;3.63;;
51907;SDS011;39320;53.214;6.556;2023-01-23T05:20:51;3.38;;;3.10;;
51907;SDS011;39320;53.214;6.556;2023-01-23T05:23:17;3.83;;;3.33;;
51907;SDS011;39320;53.214;6.556;2023-01-23T05:25:43;3.42;;;3.13;;
51907;SDS011;39320;53.214;6.556;2023-01-23T05:28:09;5.05;;;3.70;;
51907;SDS011;39320;53.214;6.556;2023-01-23T05:30:36;5.43;;;3.85;;
51907;SDS011;39320;53.214;6.556;2023-01-23T05:33:02;3.92;;;3.63;;
51907;SDS011;39320;53.214;6.556;2023-01-23T05:35:28;4.57;;;4.13;;
51907;SDS011;39320;53.214;6.556;2023-01-23T05:37:54;4.35;;;3.47;;
51907;SDS011;39320;53.214;6.556;2023-01-23T05:40:20;3.72;;;3.42;;
51907;SDS011;39320;53.214;6.556;2023-01-23T05:42:46;3.72;;;3.42;;
51907;SDS011;39320;53.214;6.556;2023-01-23T05:45:16;4.13;;;3.83;;
51907;SDS011;39320;53.214;6.556;2023-01-23T05:47:42;4.13;;;3.72;;
51907;SDS011;39320;53.214;6.556;2023-01-23T05:50:13;3.80;;;3.50;;
51907;SDS011;39320;53.214;6.556;2023-01-23T05:52:40;4.97;;;3.60;;
51907;SDS011;39320;53.214;6.556;2023-01-23T05:55:06;4.65;;;3.70;;
51907;SDS011;39320;53.214;6.556;2023-01-23T05:57:33;4.60;;;4.10;;
51907;SDS011;39320;53.214;6.556;2023-01-23T06:00:03;5.03;;;4.63;;
51907;SDS011;39320;53.214;6.556;2023-01-23T06:02:30;3.40;;;3.13;;
51907;SDS011;39320;53.214;6.556;2023-01-23T06:04:57;3.78;;;3.47;;
51907;SDS011;39320;53.214;6.556;2023-01-23T06:07:23;4.00;;;3.60;;
51907;SDS011;39320;53.214;6.556;2023-01-23T06:09:52;3.88;;;3.58;;
51907;SDS011;39320;53.214;6.556;2023-01-23T06:12:18;3.85;;;3.55;;
51907;SDS011;39320;53.214;6.556;2023-01-23T06:14:45;3.70;;;3.40;;
51907;SDS011;39320;53.214;6.556;2023-01-23T06:17:12;3.58;;;3.30;;
51907;SDS011;39320;53.214;6.556;2023-01-23T06:19:47;4.00;;;3.70;;
51907;SDS011;39320;53.214;6.556;2023-01-23T06:22:31;4.25;;;3.95;;
51907;SDS011;39320;53.214;6.556;2023-01-23T06:25:00;4.10;;;3.70;;
51907;SDS011;39320;53.214;6.556;2023-01-23T06:27:27;4.03;;;3.72;;
51907;SDS011;39320;53.214;6.556;2023-01-23T06:29:55;4.07;;;3.78;;
51907;SDS011;39320;53.214;6.556;2023-01-23T06:32:21;3.88;;;3.58;;
51907;SDS011;39320;53.214;6.556;2023-01-23T06:34:48;3.95;;;3.55;;
51907;SDS011;39320;53.214;6.556;2023-01-23T06:43:28;4.70;;;3.42;;
51907;SDS011;39320;53.214;6.556;2023-01-23T06:45:54;4.03;;;3.63;;
51907;SDS011;39320;53.214;6.556;2023-01-23T06:51:19;3.63;;;3.30;;
51907;SDS011;39320;53.214;6.556;2023-01-23T06:53:46;4.15;;;3.75;;
51907;SDS011;39320;53.214;6.556;2023-01-23T06:56:23;4.13;;;3.83;;
51907;SDS011;39320;53.214;6.556;2023-01-23T06:58:51;4.55;;;4.10;;
51907;SDS011;39320;53.214;6.556;2023-01-23T07:01:18;4.30;;;3.90;;
51907;SDS011;39320;53.214;6.556;2023-01-23T07:03:44;3.97;;;3.58;;
51907;SDS011;39320;53.214;6.556;2023-01-23T07:06:13;4.90;;;4.00;;
51907;SDS011;39320;53.214;6.556;2023-01-23T07:08:50;3.78;;;3.40;;
51907;SDS011;39320;53.214;6.556;2023-01-23T07:11:24;4.28;;;3.97;;
51907;SDS011;39320;53.214;6.556;2023-01-23T07:14:01;4.22;;;3.72;;
51907;SDS011;39320;53.214;6.556;2023-01-23T07:16:27;4.30;;;3.90;;
51907;SDS011;39320;53.214;6.556;2023-01-23T07:18:56;3.97;;;3.67;;
51907;SDS011;39320;53.214;6.556;2023-01-23T07:21:30;3.75;;;3.45;;
51907;SDS011;39320;53.214;6.556;2023-01-23T07:24:00;4.65;;;4.15;;
51907;SDS011;39320;53.214;6.556;2023-01-23T07:27:22;3.83;;;3.47;;
51907;SDS011;39320;53.214;6.556;2023-01-23T07:29:57;4.88;;;4.47;;
51907;SDS011;39320;53.214;6.556;2023-01-23T07:32:23;4.45;;;4.15;;
51907;SDS011;39320;53.214;6.556;2023-01-23T07:34:49;4.35;;;4.07;;
51907;SDS011;39320;53.214;6.556;2023-01-23T07:37:25;5.03;;;4.15;;
51907;SDS011;39320;53.214;6.556;2023-01-23T07:40:00;4.43;;;4.05;;
51907;SDS011;39320;53.214;6.556;2023-01-23T07:42:27;4.57;;;4.18;;
51907;SDS011;39320;53.214;6.556;2023-01-23T07:44:56;4.55;;;4.15;;
51907;SDS011;39320;53.214;6.556;2023-01-23T07:47:22;5.68;;;4.35;;
51907;SDS011;39320;53.214;6.556;2023-01-23T07:49:49;4.75;;;4.30;;
51907;SDS011;39320;53.214;6.556;2023-01-23T07:52:17;4.60;;;4.20;;
51907;SDS011;39320;53.214;6.556;2023-01-23T07:54:43;5.18;;;4.22;;
51907;SDS011;39320;53.214;6.556;2023-01-23T07:57:10;4.68;;;4.28;;
51907;SDS011;39320;53.214;6.556;2023-01-23T07:59:36;4.45;;;4.05;;
51907;SDS011;39320;53.214;6.556;2023-01-23T08:02:13;4.65;;;4.25;;
51907;SDS011;39320;53.214;6.556;2023-01-23T08:04:39;4.15;;;3.85;;
51907;SDS011;39320;53.214;6.556;2023-01-23T08:07:16;4.43;;;4.03;;
51907;SDS011;39320;53.214;6.556;2023-01-23T08:09:42;4.53;;;3.97;;
51907;SDS011;39320;53.214;6.556;2023-01-23T08:12:11;4.53;;;4.22;;
51907;SDS011;39320;53.214;6.556;2023-01-23T08:14:38;4.72;;;4.32;;
51907;SDS011;39320;53.214;6.556;2023-01-23T08:17:05;4.88;;;4.38;;
51907;SDS011;39320;53.214;6.556;2023-01-23T08:19:30;4.20;;;3.80;;
51907;SDS011;39320;53.214;6.556;2023-01-23T08:21:57;4.25;;;3.95;;
51907;SDS011;39320;53.214;6.556;2023-01-23T08:24:23;4.00;;;3.70;;
51907;SDS011;39320;53.214;6.556;2023-01-23T08:26:49;4.97;;;4.57;;
51907;SDS011;39320;53.214;6.556;2023-01-23T08:29:15;3.95;;;3.63;;
51907;SDS011;39320;53.214;6.556;2023-01-23T08:34:21;4.18;;;3.83;;
51907;SDS011;39320;53.214;6.556;2023-01-23T08:36:50;4.30;;;3.88;;
51907;SDS011;39320;53.214;6.556;2023-01-23T08:39:17;4.00;;;3.60;;
51907;SDS011;39320;53.214;6.556;2023-01-23T08:41:52;3.50;;;3.20;;
51907;SDS011;39320;53.214;6.556;2023-01-23T08:44:22;4.20;;;3.70;;
51907;SDS011;39320;53.214;6.556;2023-01-23T08:46:49;3.83;;;3.53;;
51907;SDS011;39320;53.214;6.556;2023-01-23T08:49:17;3.40;;;3.10;;
51907;SDS011;39320;53.214;6.556;2023-01-23T08:51:51;3.50;;;3.30;;
51907;SDS011;39320;53.214;6.556;2023-01-23T08:54:17;3.70;;;3.33;;
51907;SDS011;39320;53.214;6.556;2023-01-23T08:56:48;3.25;;;3.00;;
51907;SDS011;39320;53.214;6.556;2023-01-23T08:59:14;3.50;;;3.30;;
51907;SDS011;39320;53.214;6.556;2023-01-23T09:01:46;4.20;;;3.90;;
51907;SDS011;39320;53.214;6.556;2023-01-23T09:04:13;3.70;;;3.20;;
51907;SDS011;39320;53.214;6.556;2023-01-23T09:06:49;4.03;;;3.63;;
51907;SDS011;39320;53.214;6.556;2023-01-23T09:09:20;3.33;;;3.13;;
51907;SDS011;39320;53.214;6.556;2023-01-23T09:11:56;3.70;;;3.40;;
51907;SDS011;39320;53.214;6.556;2023-01-23T09:14:25;3.60;;;3.38;;
51907;SDS011;39320;53.214;6.556;2023-01-23T09:16:59;3.47;;;3.17;;
51907;SDS011;39320;53.214;6.556;2023-01-23T09:19:25;3.30;;;3.00;;
51907;SDS011;39320;53.214;6.556;2023-01-23T09:21:57;2.97;;;2.78;;
51907;SDS011;39320;53.214;6.556;2023-01-23T09:24:30;3.47;;;3.17;;
51907;SDS011;39320;53.214;6.556;2023-01-23T09:26:56;3.22;;;3.03;;
51907;SDS011;39320;53.214;6.556;2023-01-23T09:29:25;3.50;;;3.17;;
51907;SDS011;39320;53.214;6.556;2023-01-23T09:31:59;2.97;;;2.78;;
51907;SDS011;39320;53.214;6.556;2023-01-23T09:34:30;2.60;;;2.40;;
51907;SDS011;39320;53.214;6.556;2023-01-23T09:39:43;3.78;;;2.95;;
51907;SDS011;39320;53.214;6.556;2023-01-23T09:45:15;3.30;;;3.00;;
51907;SDS011;39320;53.214;6.556;2023-01-23T09:57:10;3.30;;;2.97;;
51907;SDS011;39320;53.214;6.556;2023-01-23T10:02:57;3.58;;;3.28;;
51907;SDS011;39320;53.214;6.556;2023-01-23T10:05:42;3.58;;;3.38;;
51907;SDS011;39320;53.214;6.556;2023-01-23T10:09:02;3.40;;;3.10;;
51907;SDS011;39320;53.214;6.556;2023-01-23T10:19:44;4.28;;;3.88;;
51907;SDS011;39320;53.214;6.556;2023-01-23T10:25:10;4.90;;;4.40;;
51907;SDS011;39320;53.214;6.556;2023-01-23T10:27:50;4.18;;;3.80;;
51907;SDS011;39320;53.214;6.556;2023-01-23T10:30:27;4.18;;;3.60;;
51907;SDS011;39320;53.214;6.556;2023-01-23T10:35:54;4.00;;;3.60;;
51907;SDS011;39320;53.214;6.556;2023-01-23T10:38:34;3.95;;;3.60;;
51907;SDS011;39320;53.214;6.556;2023-01-23T10:41:10;3.78;;;3.47;;
51907;SDS011;39320;53.214;6.556;2023-01-23T10:43:40;4.18;;;3.88;;
51907;SDS011;39320;53.214;6.556;2023-01-23T10:46:12;4.45;;;4.05;;
51907;SDS011;39320;53.214;6.556;2023-01-23T10:48:51;4.90;;;3.95;;
51907;SDS011;39320;53.214;6.556;2023-01-23T10:54:05;5.20;;;4.78;;
51907;SDS011;39320;53.214;6.556;2023-01-23T10:56:35;5.50;;;5.10;;
51907;SDS011;39320;53.214;6.556;2023-01-23T10:59:35;4.75;;;4.35;;
51907;SDS011;39320;53.214;6.556;2023-01-23T11:04:47;4.75;;;4.35;;
51907;SDS011;39320;53.214;6.556;2023-01-23T11:07:20;4.85;;;4.45;;
51907;SDS011;39320;53.214;6.556;2023-01-23T11:09:52;4.78;;;4.47;;
51907;SDS011;39320;53.214;6.556;2023-01-23T11:12:31;4.80;;;4.50;;
51907;SDS011;39320;53.214;6.556;2023-01-23T11:17:51;5.00;;;4.60;;
51907;SDS011;39320;53.214;6.556;2023-01-23T11:20:23;5.35;;;4.95;;
51907;SDS011;39320;53.214;6.556;2023-01-23T11:23:26;4.72;;;4.32;;
51907;SDS011;39320;53.214;6.556;2023-01-23T11:25:56;5.40;;;4.95;;
51907;SDS011;39320;53.214;6.556;2023-01-23T11:28:27;5.20;;;4.18;;
51907;SDS011;39320;53.214;6.556;2023-01-23T11:31:05;4.78;;;4.38;;
51907;SDS011;39320;53.214;6.556;2023-01-23T11:34:03;4.70;;;4.30;;
51907;SDS011;39320;53.214;6.556;2023-01-23T11:41:52;5.15;;;4.65;;
51907;SDS011;39320;53.214;6.556;2023-01-23T11:44:27;5.22;;;4.80;;
51907;SDS011;39320;53.214;6.556;2023-01-23T11:50:51;5.82;;;4.95;;
51907;SDS011;39320;53.214;6.556;2023-01-23T11:53:51;4.63;;;4.32;;
51907;SDS011;39320;53.214;6.556;2023-01-23T11:59:12;5.15;;;4.75;;
51907;SDS011;39320;53.214;6.556;2023-01-23T12:12:07;4.45;;;4.07;;
51907;SDS011;39320;53.214;6.556;2023-01-23T12:18:55;4.97;;;4.53;;
51907;SDS011;39320;53.214;6.556;2023-01-23T12:22:24;4.40;;;4.07;;
51907;SDS011;39320;53.214;6.556;2023-01-23T12:35:45;5.07;;;4.57;;
51907;SDS011;39320;53.214;6.556;2023-01-23T12:56:57;4.20;;;3.90;;
51907;SDS011;39320;53.214;6.556;2023-01-23T13:22:23;3.33;;;3.10;;
51907;SDS011;39320;53.214;6.556;2023-01-23T13:29:00;4.10;;;3.80;;
51907;SDS011;39320;53.214;6.556;2023-01-23T13:34:34;3.92;;;3.63;;
51907;SDS011;39320;53.214;6.556;2023-01-23T13:51:40;4.25;;;3.88;;
51907;SDS011;39320;53.214;6.556;2023-01-23T13:54:41;5.82;;;4.13;;
51907;SDS011;39320;53.214;6.556;2023-01-23T13:57:26;4.53;;;4.07;;
51907;SDS011;39320;53.214;6.556;2023-01-23T14:06:29;3.63;;;3.33;;
51907;SDS011;39320;53.214;6.556;2023-01-23T14:08:58;4.43;;;4.03;;
51907;SDS011;39320;53.214;6.556;2023-01-23T14:11:54;4.65;;;4.20;;
51907;SDS011;39320;53.214;6.556;2023-01-23T14:17:47;4.45;;;4.00;;
51907;SDS011;39320;53.214;6.556;2023-01-23T14:23:40;5.07;;;4.68;;
51907;SDS011;39320;53.214;6.556;2023-01-23T14:26:27;5.00;;;4.50;;
51907;SDS011;39320;53.214;6.556;2023-01-23T14:29:01;4.55;;;4.22;;
51907;SDS011;39320;53.214;6.556;2023-01-23T14:32:37;4.95;;;4.55;;
51907;SDS011;39320;53.214;6.556;2023-01-23T14:38:58;4.47;;;4.15;;
51907;SDS011;39320;53.214;6.556;2023-01-23T14:42:03;4.85;;;4.38;;
51907;SDS011;39320;53.214;6.556;2023-01-23T14:48:12;5.63;;;4.80;;
51907;SDS011;39320;53.214;6.556;2023-01-23T15:00:20;6.00;;;5.10;;
51907;SDS011;39320;53.214;6.556;2023-01-23T15:02:53;4.80;;;4.43;;
51907;SDS011;39320;53.214;6.556;2023-01-23T15:05:31;4.45;;;4.05;;
51907;SDS011;39320;53.214;6.556;2023-01-23T15:08:03;5.07;;;4.63;;
51907;SDS011;39320;53.214;6.556;2023-01-23T15:10:58;4.28;;;3.88;;
51907;SDS011;39320;53.214;6.556;2023-01-23T15:13:42;4.22;;;3.92;;
51907;SDS011;39320;53.214;6.556;2023-01-23T15:20:39;4.32;;;4.03;;
51907;SDS011;39320;53.214;6.556;2023-01-23T15:27:33;4.43;;;4.10;;
51907;SDS011;39320;53.214;6.556;2023-01-23T15:38:26;4.25;;;3.95;;
51907;SDS011;39320;53.214;6.556;2023-01-23T15:41:47;4.07;;;3.75;;
51907;SDS011;39320;53.214;6.556;2023-01-23T15:45:10;3.55;;;3.25;;
51907;SDS011;39320;53.214;6.556;2023-01-23T15:48:48;3.53;;;3.22;;
51907;SDS011;39320;53.214;6.556;2023-01-23T15:52:23;4.18;;;3.88;;
51907;SDS011;39320;53.214;6.556;2023-01-23T15:55:35;3.67;;;3.38;;
51907;SDS011;39320;53.214;6.556;2023-01-23T15:58:13;3.83;;;3.53;;
51907;SDS011;39320;53.214;6.556;2023-01-23T16:03:31;3.80;;;3.60;;
51907;SDS011;39320;53.214;6.556;2023-01-23T16:09:08;5.50;;;5.00;;
51907;SDS011;39320;53.214;6.556;2023-01-23T16:12:18;4.20;;;3.80;;
51907;SDS011;39320;53.214;6.556;2023-01-23T16:14:48;4.13;;;3.72;;
51907;SDS011;39320;53.214;6.556;2023-01-23T16:17:30;3.80;;;3.50;;
51907;SDS011;39320;53.214;6.556;2023-01-23T16:20:04;3.92;;;3.63;;
51907;SDS011;39320;53.214;6.556;2023-01-23T16:22:51;4.50;;;4.10;;
51907;SDS011;39320;53.214;6.556;2023-01-23T16:25:31;4.15;;;3.83;;
51907;SDS011;39320;53.214;6.556;2023-01-23T16:31:20;4.15;;;3.85;;
51907;SDS011;39320;53.214;6.556;2023-01-23T16:33:58;4.15;;;3.85;;
51907;SDS011;39320;53.214;6.556;2023-01-23T16:36:25;4.95;;;4.45;;
51907;SDS011;39320;53.214;6.556;2023-01-23T16:38:54;3.97;;;3.67;;
51907;SDS011;39320;53.214;6.556;2023-01-23T16:41:23;4.13;;;3.83;;
51907;SDS011;39320;53.214;6.556;2023-01-23T16:44:27;4.30;;;4.00;;
51907;SDS011;39320;53.214;6.556;2023-01-23T16:47:35;3.90;;;3.60;;
51907;SDS011;39320;53.214;6.556;2023-01-23T16:50:10;3.05;;;2.85;;
51907;SDS011;39320;53.214;6.556;2023-01-23T16:52:58;3.75;;;3.45;;
51907;SDS011;39320;53.214;6.556;2023-01-23T16:55:38;3.90;;;3.50;;
51907;SDS011;39320;53.214;6.556;2023-01-23T16:58:23;3.80;;;3.50;;
51907;SDS011;39320;53.214;6.556;2023-01-23T17:01:17;3.85;;;3.55;;
51907;SDS011;39320;53.214;6.556;2023-01-23T17:03:55;3.58;;;3.28;;
51907;SDS011;39320;53.214;6.556;2023-01-23T17:06:24;4.10;;;3.80;;
51907;SDS011;39320;53.214;6.556;2023-01-23T17:08:57;3.70;;;3.40;;
51907;SDS011;39320;53.214;6.556;2023-01-23T17:11:27;4.30;;;3.90;;
51907;SDS011;39320;53.214;6.556;2023-01-23T17:14:14;3.80;;;3.50;;
51907;SDS011;39320;53.214;6.556;2023-01-23T17:16:43;4.43;;;4.03;;
51907;SDS011;39320;53.214;6.556;2023-01-23T17:19:26;4.55;;;3.80;;
51907;SDS011;39320;53.214;6.556;2023-01-23T17:24:56;4.30;;;3.90;;
51907;SDS011;39320;53.214;6.556;2023-01-23T17:27:28;4.60;;;4.20;;
51907;SDS011;39320;53.214;6.556;2023-01-23T17:30:44;5.53;;;3.83;;
51907;SDS011;39320;53.214;6.556;2023-01-23T17:33:20;4.03;;;3.65;;
51907;SDS011;39320;53.214;6.556;2023-01-23T17:35:59;5.15;;;4.70;;
51907;SDS011;39320;53.214;6.556;2023-01-23T17:38:29;4.47;;;4.07;;
51907;SDS011;39320;53.214;6.556;2023-01-23T17:40:55;4.15;;;3.85;;
51907;SDS011;39320;53.214;6.556;2023-01-23T17:46:20;4.47;;;4.07;;
51907;SDS011;39320;53.214;6.556;2023-01-23T17:52:14;5.20;;;4.80;;
51907;SDS011;39320;53.214;6.556;2023-01-23T17:54:48;4.55;;;4.20;;
51907;SDS011;39320;53.214;6.556;2023-01-23T17:57:18;4.70;;;4.30;;
51907;SDS011;39320;53.214;6.556;2023-01-23T17:59:50;4.68;;;4.32;;
51907;SDS011;39320;53.214;6.556;2023-01-23T18:02:25;4.05;;;3.75;;
51907;SDS011;39320;53.214;6.556;2023-01-23T18:04:53;4.22;;;3.92;;
51907;SDS011;39320;53.214;6.556;2023-01-23T18:07:25;4.70;;;4.30;;
51907;SDS011;39320;53.214;6.556;2023-01-23T18:10:02;4.47;;;4.18;;
51907;SDS011;39320;53.214;6.556;2023-01-23T18:15:36;4.82;;;4.43;;
51907;SDS011;39320;53.214;6.556;2023-01-23T18:21:04;5.45;;;4.95;;
51907;SDS011;39320;53.214;6.556;2023-01-23T18:38:04;5.10;;;4.63;;
51907;SDS011;39320;53.214;6.556;2023-01-23T18:44:04;5.32;;;4.93;;
51907;SDS011;39320;53.214;6.556;2023-01-23T18:46:37;4.93;;;4.57;;
51907;SDS011;39320;53.214;6.556;2023-01-23T18:49:07;4.72;;;4.32;;
51907;SDS011;39320;53.214;6.556;2023-01-23T19:05:51;4.43;;;4.05;;
51907;SDS011;39320;53.214;6.556;2023-01-23T19:08:36;5.03;;;4.63;;
51907;SDS011;39320;53.214;6.556;2023-01-23T19:11:05;5.13;;;4.72;;
51907;SDS011;39320;53.214;6.556;2023-01-23T19:16:57;5.18;;;4.78;;
51907;SDS011;39320;53.214;6.556;2023-01-23T19:19:31;4.95;;;4.55;;
51907;SDS011;39320;53.214;6.556;2023-01-23T19:22:12;5.07;;;4.63;;
51907;SDS011;39320;53.214;6.556;2023-01-23T19:25:23;4.68;;;4.28;;
51907;SDS011;39320;53.214;6.556;2023-01-23T19:28:35;4.95;;;4.60;;
51907;SDS011;39320;53.214;6.556;2023-01-23T19:31:44;4.45;;;4.15;;
51907;SDS011;39320;53.214;6.556;2023-01-23T19:34:20;4.60;;;4.20;;
51907;SDS011;39320;53.214;6.556;2023-01-23T19:36:52;4.43;;;4.13;;
51907;SDS011;39320;53.214;6.556;2023-01-23T19:39:21;4.22;;;3.85;;
51907;SDS011;39320;53.214;6.556;2023-01-23T19:41:52;4.40;;;4.10;;
51907;SDS011;39320;53.214;6.556;2023-01-23T19:44:21;4.93;;;4.43;;
51907;SDS011;39320;53.214;6.556;2023-01-23T19:46:49;4.82;;;4.43;;
51907;SDS011;39320;53.214;6.556;2023-01-23T19:49:15;4.35;;;3.95;;
51907;SDS011;39320;53.214;6.556;2023-01-23T19:51:42;4.32;;;4.03;;